sensor_id;sensor_type;location;lat;lon;timestamp;pressure;altitude;pressure_sealevel;temperature;humidity
77897;BME280;67092;64.282;21.056;2023-05-08T00:00:48;102290.75;;;21.65;23.12
77897;BME280;67092;64.282;21.056;2023-05-08T00:03:13;102289.16;;;21.67;22.92
77897;BME280;67092;64.282;21.056;2023-05-08T00:05:40;102287.17;;;21.92;23.11
77897;BME280;67092;64.282;21.056;2023-05-08T00:08:04;102288.63;;;21.45;23.35
77897;BME280;67092;64.282;21.056;2023-05-08T00:10:30;102288.23;;;21.82;23.13
77897;BME280;67092;64.282;21.056;2023-05-08T00:12:56;102288.72;;;21.70;23.12
77897;BME280;67092;64.282;21.056;2023-05-08T00:15:21;102292.36;;;21.81;23.11
77897;BME280;67092;64.282;21.056;2023-05-08T00:17:47;102298.80;;;21.52;23.24
77897;BME280;67092;64.282;21.056;2023-05-08T00:20:13;102301.22;;;21.67;23.02
77897;BME280;67092;64.282;21.056;2023-05-08T00:22:38;102301.43;;;21.79;23.11
77897;BME280;67092;64.282;21.056;2023-05-08T00:25:04;102303.66;;;21.45;23.22
77897;BME280;67092;64.282;21.056;2023-05-08T00:27:29;102306.93;;;21.75;23.20
77897;BME280;67092;64.282;21.056;2023-05-08T00:29:55;102311.09;;;21.86;23.35
77897;BME280;67092;64.282;21.056;2023-05-08T00:32:22;102312.36;;;21.33;23.67
77897;BME280;67092;64.282;21.056;2023-05-08T00:34:46;102311.60;;;21.20;23.90
77897;BME280;67092;64.282;21.056;2023-05-08T00:37:12;102310.13;;;21.46;23.99
77897;BME280;67092;64.282;21.056;2023-05-08T00:39:37;102308.40;;;21.23;24.05
77897;BME280;67092;64.282;21.056;2023-05-08T00:42:03;102305.63;;;21.69;23.82
77897;BME280;67092;64.282;21.056;2023-05-08T00:44:29;102306.15;;;21.61;23.65
77897;BME280;67092;64.282;21.056;2023-05-08T00:46:54;102302.64;;;21.50;23.85
77897;BME280;67092;64.282;21.056;2023-05-08T00:49:20;102302.92;;;21.30;24.19
77897;BME280;67092;64.282;21.056;2023-05-08T00:51:47;102304.77;;;21.34;23.98
77897;BME280;67092;64.282;21.056;2023-05-08T00:54:12;102306.99;;;21.32;23.97
77897;BME280;67092;64.282;21.056;2023-05-08T00:56:37;102309.80;;;20.96;24.24
77897;BME280;67092;64.282;21.056;2023-05-08T00:59:03;102309.37;;;21.25;24.30
77897;BME280;67092;64.282;21.056;2023-05-08T01:01:29;102308.67;;;21.46;23.91
77897;BME280;67092;64.282;21.056;2023-05-08T01:03:54;102309.20;;;21.80;23.77
77897;BME280;67092;64.282;21.056;2023-05-08T01:06:19;102315.92;;;21.37;23.83
77897;BME280;67092;64.282;21.056;2023-05-08T01:08:45;102315.61;;;21.61;23.87
77897;BME280;67092;64.282;21.056;2023-05-08T01:11:15;102318.46;;;21.15;24.17
77897;BME280;67092;64.282;21.056;2023-05-08T01:13:48;102317.84;;;21.80;23.88
77897;BME280;67092;64.282;21.056;2023-05-08T01:16:08;102320.16;;;20.56;24.66
77897;BME280;67092;64.282;21.056;2023-05-08T01:18:32;102317.31;;;21.41;24.11
77897;BME280;67092;64.282;21.056;2023-05-08T01:20:58;102317.05;;;21.11;24.33
77897;BME280;67092;64.282;21.056;2023-05-08T01:28:22;102322.63;;;21.37;24.35
77897;BME280;67092;64.282;21.056;2023-05-08T01:30:53;102324.02;;;21.08;24.48
77897;BME280;67092;64.282;21.056;2023-05-08T01:33:07;102325.17;;;21.39;24.41
77897;BME280;67092;64.282;21.056;2023-05-08T01:35:31;102324.64;;;21.06;24.73
77897;BME280;67092;64.282;21.056;2023-05-08T01:37:59;102323.60;;;20.63;24.89
77897;BME280;67092;64.282;21.056;2023-05-08T01:40:32;102322.03;;;21.68;24.18
77897;BME280;67092;64.282;21.056;2023-05-08T01:42:48;102322.86;;;20.62;24.97
77897;BME280;67092;64.282;21.056;2023-05-08T01:45:13;102323.69;;;20.99;24.80
77897;BME280;67092;64.282;21.056;2023-05-08T01:47:37;102323.42;;;20.67;24.62
77897;BME280;67092;64.282;21.056;2023-05-08T01:50:05;102322.97;;;20.85;24.98
77897;BME280;67092;64.282;21.056;2023-05-08T01:52:30;102324.12;;;21.05;24.73
77897;BME280;67092;64.282;21.056;2023-05-08T01:54:56;102321.46;;;21.09;24.65
77897;BME280;67092;64.282;21.056;2023-05-08T01:57:18;102318.44;;;21.24;24.48
77897;BME280;67092;64.282;21.056;2023-05-08T01:59:43;102321.19;;;21.64;24.12
77897;BME280;67092;64.282;21.056;2023-05-08T02:02:09;102322.14;;;20.99;24.46
77897;BME280;67092;64.282;21.056;2023-05-08T02:04:35;102329.64;;;21.43;23.85
77897;BME280;67092;64.282;21.056;2023-05-08T02:07:00;102328.41;;;20.94;24.28
77897;BME280;67092;64.282;21.056;2023-05-08T02:09:27;102328.57;;;21.51;24.01
77897;BME280;67092;64.282;21.056;2023-05-08T02:11:52;102330.82;;;21.24;24.49
77897;BME280;67092;64.282;21.056;2023-05-08T02:14:19;102330.62;;;21.38;24.14
77897;BME280;67092;64.282;21.056;2023-05-08T02:16:43;102330.50;;;21.48;24.21
77897;BME280;67092;64.282;21.056;2023-05-08T02:19:09;102332.98;;;21.64;24.03
77897;BME280;67092;64.282;21.056;2023-05-08T02:21:35;102332.91;;;21.20;24.41
77897;BME280;67092;64.282;21.056;2023-05-08T02:24:00;102332.19;;;21.50;24.14
77897;BME280;67092;64.282;21.056;2023-05-08T02:26:25;102332.97;;;21.49;24.44
77897;BME280;67092;64.282;21.056;2023-05-08T02:28:52;102329.12;;;21.17;24.55
77897;BME280;67092;64.282;21.056;2023-05-08T02:31:17;102336.12;;;21.60;24.11
77897;BME280;67092;64.282;21.056;2023-05-08T02:33:42;102327.28;;;21.11;24.09
77897;BME280;67092;64.282;21.056;2023-05-08T02:36:08;102324.73;;;21.01;24.33
77897;BME280;67092;64.282;21.056;2023-05-08T02:38:34;102332.39;;;21.71;23.93
77897;BME280;67092;64.282;21.056;2023-05-08T02:41:01;102326.29;;;21.38;24.18
77897;BME280;67092;64.282;21.056;2023-05-08T02:43:25;102327.11;;;21.14;24.42
77897;BME280;67092;64.282;21.056;2023-05-08T02:45:57;102327.21;;;21.61;23.93
77897;BME280;67092;64.282;21.056;2023-05-08T02:48:21;102325.40;;;21.46;24.06
77897;BME280;67092;64.282;21.056;2023-05-08T02:50:47;102325.97;;;21.65;23.93
77897;BME280;67092;64.282;21.056;2023-05-08T02:53:10;102323.66;;;21.73;24.17
77897;BME280;67092;64.282;21.056;2023-05-08T02:55:38;102322.41;;;21.29;24.38
77897;BME280;67092;64.282;21.056;2023-05-08T02:58:05;102320.07;;;21.25;24.36
77897;BME280;67092;64.282;21.056;2023-05-08T03:00:28;102319.98;;;20.96;24.51
77897;BME280;67092;64.282;21.056;2023-05-08T03:02:53;102319.21;;;21.21;24.41
77897;BME280;67092;64.282;21.056;2023-05-08T03:05:17;102316.62;;;21.09;24.58
77897;BME280;67092;64.282;21.056;2023-05-08T03:07:42;102320.08;;;20.67;24.72
77897;BME280;67092;64.282;21.056;2023-05-08T03:10:11;102323.28;;;21.01;24.70
77897;BME280;67092;64.282;21.056;2023-05-08T03:12:33;102326.55;;;21.00;24.78
77897;BME280;67092;64.282;21.056;2023-05-08T03:15:02;102321.02;;;20.91;24.87
77897;BME280;67092;64.282;21.056;2023-05-08T03:17:23;102319.16;;;20.84;24.96
77897;BME280;67092;64.282;21.056;2023-05-08T03:19:53;102318.58;;;21.28;24.64
77897;BME280;67092;64.282;21.056;2023-05-08T03:22:15;102324.29;;;20.89;24.92
77897;BME280;67092;64.282;21.056;2023-05-08T03:24:42;102326.36;;;20.88;24.96
77897;BME280;67092;64.282;21.056;2023-05-08T03:27:06;102327.81;;;21.23;24.84
77897;BME280;67092;64.282;21.056;2023-05-08T03:29:32;102324.75;;;21.26;24.74
77897;BME280;67092;64.282;21.056;2023-05-08T03:31:57;102327.71;;;21.21;24.75
77897;BME280;67092;64.282;21.056;2023-05-08T03:34:23;102323.52;;;21.28;24.80
77897;BME280;67092;64.282;21.056;2023-05-08T03:36:48;102325.24;;;20.88;25.16
77897;BME280;67092;64.282;21.056;2023-05-08T03:39:14;102320.95;;;21.13;24.91
77897;BME280;67092;64.282;21.056;2023-05-08T03:41:39;102324.01;;;21.39;24.40
77897;BME280;67092;64.282;21.056;2023-05-08T03:44:06;102328.46;;;20.66;25.09
77897;BME280;67092;64.282;21.056;2023-05-08T03:46:32;102322.63;;;21.17;24.79
77897;BME280;67092;64.282;21.056;2023-05-08T03:48:57;102326.44;;;21.04;24.95
77897;BME280;67092;64.282;21.056;2023-05-08T03:51:22;102322.55;;;21.41;24.54
77897;BME280;67092;64.282;21.056;2023-05-08T03:53:47;102328.44;;;21.03;24.96
77897;BME280;67092;64.282;21.056;2023-05-08T03:56:13;102326.38;;;21.39;24.62
77897;BME280;67092;64.282;21.056;2023-05-08T03:58:45;102333.26;;;20.48;25.23
77897;BME280;67092;64.282;21.056;2023-05-08T04:01:09;102334.90;;;21.63;24.45
77897;BME280;67092;64.282;21.056;2023-05-08T04:03:48;102335.56;;;20.79;25.20
77897;BME280;67092;64.282;21.056;2023-05-08T04:06:00;102334.49;;;21.27;24.79
77897;BME280;67092;64.282;21.056;2023-05-08T04:08:26;102336.27;;;20.88;24.97
77897;BME280;67092;64.282;21.056;2023-05-08T04:10:49;102329.23;;;20.89;25.14
77897;BME280;67092;64.282;21.056;2023-05-08T04:13:14;102321.23;;;20.93;25.59
77897;BME280;67092;64.282;21.056;2023-05-08T04:15:43;102327.19;;;20.96;25.52
77897;BME280;67092;64.282;21.056;2023-05-08T04:18:06;102325.01;;;21.24;24.98
77897;BME280;67092;64.282;21.056;2023-05-08T04:20:31;102327.22;;;21.36;24.88
77897;BME280;67092;64.282;21.056;2023-05-08T04:22:56;102329.51;;;20.99;25.22
77897;BME280;67092;64.282;21.056;2023-05-08T04:25:21;102326.46;;;21.34;25.03
77897;BME280;67092;64.282;21.056;2023-05-08T04:27:47;102327.98;;;21.55;24.78
77897;BME280;67092;64.282;21.056;2023-05-08T04:30:12;102330.51;;;20.89;25.28
77897;BME280;67092;64.282;21.056;2023-05-08T04:32:38;102325.61;;;21.11;24.84
77897;BME280;67092;64.282;21.056;2023-05-08T04:35:04;102323.73;;;21.22;24.99
77897;BME280;67092;64.282;21.056;2023-05-08T04:37:29;102319.53;;;21.51;25.08
77897;BME280;67092;64.282;21.056;2023-05-08T04:39:54;102319.20;;;20.94;25.19
77897;BME280;67092;64.282;21.056;2023-05-08T04:42:20;102322.01;;;21.00;25.24
77897;BME280;67092;64.282;21.056;2023-05-08T04:44:46;102319.98;;;21.26;24.95
77897;BME280;67092;64.282;21.056;2023-05-08T04:47:11;102318.14;;;20.94;25.07
77897;BME280;67092;64.282;21.056;2023-05-08T04:49:37;102317.04;;;21.36;24.90
77897;BME280;67092;64.282;21.056;2023-05-08T04:52:03;102319.16;;;21.66;24.61
77897;BME280;67092;64.282;21.056;2023-05-08T04:54:28;102318.24;;;21.23;24.74
77897;BME280;67092;64.282;21.056;2023-05-08T04:56:54;102321.38;;;21.04;24.92
77897;BME280;67092;64.282;21.056;2023-05-08T04:59:19;102320.56;;;21.15;25.00
77897;BME280;67092;64.282;21.056;2023-05-08T05:01:46;102318.47;;;21.23;25.36
77897;BME280;67092;64.282;21.056;2023-05-08T05:04:10;102313.54;;;21.13;25.13
77897;BME280;67092;64.282;21.056;2023-05-08T05:06:36;102316.60;;;20.81;25.19
77897;BME280;67092;64.282;21.056;2023-05-08T05:09:02;102317.27;;;21.23;25.07
77897;BME280;67092;64.282;21.056;2023-05-08T05:11:27;102317.42;;;20.94;25.08
77897;BME280;67092;64.282;21.056;2023-05-08T05:13:53;102316.76;;;21.59;24.91
77897;BME280;67092;64.282;21.056;2023-05-08T05:16:19;102314.35;;;21.39;24.95
77897;BME280;67092;64.282;21.056;2023-05-08T05:18:44;102314.26;;;21.46;24.90
77897;BME280;67092;64.282;21.056;2023-05-08T05:21:10;102316.06;;;21.24;25.06
77897;BME280;67092;64.282;21.056;2023-05-08T05:23:35;102318.92;;;21.05;25.13
77897;BME280;67092;64.282;21.056;2023-05-08T05:26:01;102318.03;;;21.41;25.14
77897;BME280;67092;64.282;21.056;2023-05-08T05:28:27;102324.86;;;21.54;25.00
77897;BME280;67092;64.282;21.056;2023-05-08T05:30:52;102326.64;;;21.56;25.08
77897;BME280;67092;64.282;21.056;2023-05-08T05:33:18;102327.77;;;21.70;24.96
77897;BME280;67092;64.282;21.056;2023-05-08T05:35:44;102325.63;;;20.93;25.49
77897;BME280;67092;64.282;21.056;2023-05-08T05:38:09;102316.64;;;21.37;25.08
77897;BME280;67092;64.282;21.056;2023-05-08T05:40:35;102324.12;;;21.24;25.11
77897;BME280;67092;64.282;21.056;2023-05-08T05:43:00;102325.29;;;21.46;24.83
77897;BME280;67092;64.282;21.056;2023-05-08T05:45:26;102326.37;;;21.26;24.72
77897;BME280;67092;64.282;21.056;2023-05-08T05:47:52;102325.14;;;20.99;25.20
77897;BME280;67092;64.282;21.056;2023-05-08T05:50:17;102323.96;;;21.17;25.00
77897;BME280;67092;64.282;21.056;2023-05-08T05:52:43;102326.30;;;20.98;25.15
77897;BME280;67092;64.282;21.056;2023-05-08T05:55:08;102322.48;;;21.08;24.75
77897;BME280;67092;64.282;21.056;2023-05-08T05:57:34;102322.94;;;21.24;24.77
77897;BME280;67092;64.282;21.056;2023-05-08T05:59:59;102321.67;;;21.38;24.61
77897;BME280;67092;64.282;21.056;2023-05-08T06:02:25;102324.51;;;21.32;24.37
77897;BME280;67092;64.282;21.056;2023-05-08T06:04:51;102319.87;;;21.26;24.64
77897;BME280;67092;64.282;21.056;2023-05-08T06:07:16;102321.67;;;21.46;24.44
77897;BME280;67092;64.282;21.056;2023-05-08T06:09:42;102321.47;;;21.26;24.33
77897;BME280;67092;64.282;21.056;2023-05-08T06:12:07;102319.45;;;21.22;24.54
77897;BME280;67092;64.282;21.056;2023-05-08T06:14:33;102314.97;;;21.44;24.33
77897;BME280;67092;64.282;21.056;2023-05-08T06:16:59;102314.37;;;21.05;24.39
77897;BME280;67092;64.282;21.056;2023-05-08T06:19:24;102315.00;;;21.11;24.53
77897;BME280;67092;64.282;21.056;2023-05-08T06:21:50;102316.74;;;21.21;24.38
77897;BME280;67092;64.282;21.056;2023-05-08T06:24:15;102316.70;;;21.51;24.10
77897;BME280;67092;64.282;21.056;2023-05-08T06:26:41;102312.57;;;21.41;24.08
77897;BME280;67092;64.282;21.056;2023-05-08T06:29:07;102311.01;;;21.04;24.17
77897;BME280;67092;64.282;21.056;2023-05-08T06:31:32;102315.90;;;21.23;24.43
77897;BME280;67092;64.282;21.056;2023-05-08T06:33:57;102313.06;;;21.40;24.05
77897;BME280;67092;64.282;21.056;2023-05-08T06:36:23;102316.75;;;20.84;24.52
77897;BME280;67092;64.282;21.056;2023-05-08T06:38:49;102312.37;;;21.01;24.40
77897;BME280;67092;64.282;21.056;2023-05-08T06:41:14;102309.44;;;20.92;24.45
77897;BME280;67092;64.282;21.056;2023-05-08T06:43:40;102309.81;;;20.80;24.51
77897;BME280;67092;64.282;21.056;2023-05-08T06:46:06;102314.28;;;20.66;24.67
77897;BME280;67092;64.282;21.056;2023-05-08T06:48:31;102312.06;;;20.58;24.71
77897;BME280;67092;64.282;21.056;2023-05-08T06:50:57;102313.07;;;20.97;24.31
77897;BME280;67092;64.282;21.056;2023-05-08T06:53:22;102315.34;;;20.77;24.50
77897;BME280;67092;64.282;21.056;2023-05-08T06:55:48;102316.33;;;21.66;23.65
77897;BME280;67092;64.282;21.056;2023-05-08T06:58:14;102313.35;;;21.05;24.14
77897;BME280;67092;64.282;21.056;2023-05-08T07:00:40;102316.72;;;20.91;24.23
77897;BME280;67092;64.282;21.056;2023-05-08T07:03:05;102315.47;;;21.13;24.00
77897;BME280;67092;64.282;21.056;2023-05-08T07:05:31;102313.91;;;21.26;23.65
77897;BME280;67092;64.282;21.056;2023-05-08T07:07:56;102311.51;;;20.89;24.16
77897;BME280;67092;64.282;21.056;2023-05-08T07:10:22;102309.99;;;21.25;23.84
77897;BME280;67092;64.282;21.056;2023-05-08T07:12:47;102310.70;;;21.25;23.86
77897;BME280;67092;64.282;21.056;2023-05-08T07:15:13;102307.82;;;21.24;23.82
77897;BME280;67092;64.282;21.056;2023-05-08T07:17:38;102306.48;;;21.30;23.98
77897;BME280;67092;64.282;21.056;2023-05-08T07:20:05;102310.17;;;20.90;24.14
77897;BME280;67092;64.282;21.056;2023-05-08T07:22:30;102305.05;;;20.90;23.92
77897;BME280;67092;64.282;21.056;2023-05-08T07:24:55;102307.03;;;20.88;23.91
77897;BME280;67092;64.282;21.056;2023-05-08T07:27:21;102304.62;;;20.64;24.07
77897;BME280;67092;64.282;21.056;2023-05-08T07:29:46;102302.27;;;21.26;23.72
77897;BME280;67092;64.282;21.056;2023-05-08T07:32:12;102299.24;;;21.26;23.94
77897;BME280;67092;64.282;21.056;2023-05-08T07:34:38;102297.31;;;20.93;24.02
77897;BME280;67092;64.282;21.056;2023-05-08T07:37:03;102296.47;;;20.76;23.94
77897;BME280;67092;64.282;21.056;2023-05-08T07:39:29;102298.21;;;21.21;23.76
77897;BME280;67092;64.282;21.056;2023-05-08T07:41:55;102294.77;;;21.31;23.66
77897;BME280;67092;64.282;21.056;2023-05-08T07:44:20;102292.24;;;20.99;23.95
77897;BME280;67092;64.282;21.056;2023-05-08T07:46:46;102296.29;;;21.14;23.78
77897;BME280;67092;64.282;21.056;2023-05-08T07:49:11;102292.34;;;21.11;23.81
77897;BME280;67092;64.282;21.056;2023-05-08T07:51:37;102288.94;;;20.86;24.01
77897;BME280;67092;64.282;21.056;2023-05-08T07:54:03;102289.23;;;20.68;24.20
77897;BME280;67092;64.282;21.056;2023-05-08T07:56:28;102284.29;;;21.34;23.80
77897;BME280;67092;64.282;21.056;2023-05-08T07:58:54;102284.97;;;21.38;23.75
77897;BME280;67092;64.282;21.056;2023-05-08T08:01:20;102287.36;;;21.29;23.63
77897;BME280;67092;64.282;21.056;2023-05-08T08:03:45;102289.94;;;21.10;23.58
77897;BME280;67092;64.282;21.056;2023-05-08T08:06:11;102293.18;;;21.05;23.42
77897;BME280;67092;64.282;21.056;2023-05-08T08:08:37;102288.73;;;21.48;23.63
77897;BME280;67092;64.282;21.056;2023-05-08T08:11:02;102287.66;;;21.19;23.67
77897;BME280;67092;64.282;21.056;2023-05-08T08:13:28;102287.16;;;21.04;23.82
77897;BME280;67092;64.282;21.056;2023-05-08T08:15:53;102289.75;;;21.50;23.42
77897;BME280;67092;64.282;21.056;2023-05-08T08:18:19;102286.28;;;21.20;23.85
77897;BME280;67092;64.282;21.056;2023-05-08T08:20:45;102283.72;;;21.27;23.59
77897;BME280;67092;64.282;21.056;2023-05-08T08:23:10;102277.10;;;21.40;23.67
77897;BME280;67092;64.282;21.056;2023-05-08T08:25:36;102280.52;;;21.31;23.53
77897;BME280;67092;64.282;21.056;2023-05-08T08:28:01;102276.75;;;21.44;23.41
77897;BME280;67092;64.282;21.056;2023-05-08T08:30:27;102273.86;;;21.57;23.30
77897;BME280;67092;64.282;21.056;2023-05-08T08:32:53;102271.43;;;21.17;23.39
77897;BME280;67092;64.282;21.056;2023-05-08T08:35:18;102273.41;;;21.33;23.42
77897;BME280;67092;64.282;21.056;2023-05-08T08:37:44;102272.47;;;21.39;23.41
77897;BME280;67092;64.282;21.056;2023-05-08T08:40:10;102272.86;;;21.25;23.51
77897;BME280;67092;64.282;21.056;2023-05-08T08:42:35;102275.89;;;20.61;23.90
77897;BME280;67092;64.282;21.056;2023-05-08T08:45:01;102278.88;;;21.20;23.58
77897;BME280;67092;64.282;21.056;2023-05-08T08:47:28;102278.51;;;21.54;23.25
77897;BME280;67092;64.282;21.056;2023-05-08T08:49:52;102280.16;;;20.99;23.74
77897;BME280;67092;64.282;21.056;2023-05-08T08:52:25;102279.65;;;21.15;23.60
77897;BME280;67092;64.282;21.056;2023-05-08T08:54:46;102277.19;;;21.41;23.57
77897;BME280;67092;64.282;21.056;2023-05-08T08:57:09;102274.79;;;20.95;23.51
77897;BME280;67092;64.282;21.056;2023-05-08T08:59:37;102278.52;;;20.89;23.82
77897;BME280;67092;64.282;21.056;2023-05-08T09:02:06;102275.72;;;20.72;23.75
77897;BME280;67092;64.282;21.056;2023-05-08T09:04:26;102275.21;;;21.27;23.43
77897;BME280;67092;64.282;21.056;2023-05-08T09:06:52;102273.54;;;21.20;23.51
77897;BME280;67092;64.282;21.056;2023-05-08T09:09:17;102271.84;;;20.99;23.68
77897;BME280;67092;64.282;21.056;2023-05-08T09:11:45;102272.79;;;21.13;23.54
77897;BME280;67092;64.282;21.056;2023-05-08T09:14:08;102272.63;;;21.35;23.38
77897;BME280;67092;64.282;21.056;2023-05-08T09:16:34;102272.22;;;21.29;23.39
77897;BME280;67092;64.282;21.056;2023-05-08T09:19:01;102270.31;;;21.10;23.59
77897;BME280;67092;64.282;21.056;2023-05-08T09:21:26;102268.51;;;20.96;23.45
77897;BME280;67092;64.282;21.056;2023-05-08T09:23:55;102269.23;;;21.17;23.50
77897;BME280;67092;64.282;21.056;2023-05-08T09:26:27;102269.07;;;20.90;23.71
77897;BME280;67092;64.282;21.056;2023-05-08T09:28:42;102270.26;;;21.34;23.56
77897;BME280;67092;64.282;21.056;2023-05-08T09:31:08;102268.02;;;21.18;23.48
77897;BME280;67092;64.282;21.056;2023-05-08T09:33:43;102263.91;;;21.29;23.36
77897;BME280;67092;64.282;21.056;2023-05-08T09:35:59;102263.49;;;21.65;23.06
77897;BME280;67092;64.282;21.056;2023-05-08T09:38:32;102262.31;;;21.27;23.36
77897;BME280;67092;64.282;21.056;2023-05-08T09:43:16;102256.17;;;21.26;23.38
77897;BME280;67092;64.282;21.056;2023-05-08T09:45:41;102254.52;;;21.11;23.49
77897;BME280;67092;64.282;21.056;2023-05-08T09:48:08;102254.51;;;20.84;23.75
77897;BME280;67092;64.282;21.056;2023-05-08T09:50:33;102255.94;;;20.76;23.83
77897;BME280;67092;64.282;21.056;2023-05-08T09:52:58;102250.92;;;20.64;23.90
77897;BME280;67092;64.282;21.056;2023-05-08T09:55:24;102253.64;;;20.78;23.82
77897;BME280;67092;64.282;21.056;2023-05-08T09:57:52;102254.66;;;21.15;23.47
77897;BME280;67092;64.282;21.056;2023-05-08T10:00:16;102250.22;;;20.68;23.84
77897;BME280;67092;64.282;21.056;2023-05-08T10:02:52;102250.53;;;20.78;23.57
77897;BME280;67092;64.282;21.056;2023-05-08T10:07:33;102245.43;;;21.64;23.00
77897;BME280;67092;64.282;21.056;2023-05-08T10:09:59;102245.14;;;21.51;23.11
77897;BME280;67092;64.282;21.056;2023-05-08T10:12:23;102242.43;;;21.07;23.48
77897;BME280;67092;64.282;21.056;2023-05-08T10:14:50;102244.47;;;21.14;23.44
77897;BME280;67092;64.282;21.056;2023-05-08T10:17:18;102245.65;;;21.35;23.44
77897;BME280;67092;64.282;21.056;2023-05-08T10:19:42;102243.86;;;20.98;23.33
77897;BME280;67092;64.282;21.056;2023-05-08T10:22:09;102242.63;;;21.12;23.44
77897;BME280;67092;64.282;21.056;2023-05-08T10:24:32;102240.13;;;21.46;23.11
77897;BME280;67092;64.282;21.056;2023-05-08T10:27:11;102240.95;;;21.16;23.41
77897;BME280;67092;64.282;21.056;2023-05-08T10:29:30;102238.67;;;21.17;23.40
77897;BME280;67092;64.282;21.056;2023-05-08T10:31:49;102232.44;;;21.49;23.08
77897;BME280;67092;64.282;21.056;2023-05-08T10:34:18;102232.17;;;21.15;23.39
77897;BME280;67092;64.282;21.056;2023-05-08T10:36:40;102228.84;;;21.02;23.47
77897;BME280;67092;64.282;21.056;2023-05-08T10:39:05;102228.75;;;20.95;23.54
77897;BME280;67092;64.282;21.056;2023-05-08T10:41:31;102226.24;;;21.75;23.04
77897;BME280;67092;64.282;21.056;2023-05-08T10:43:56;102224.32;;;20.81;23.43
77897;BME280;67092;64.282;21.056;2023-05-08T10:46:28;102226.63;;;21.21;23.33
77897;BME280;67092;64.282;21.056;2023-05-08T10:48:59;102228.01;;;21.27;23.24
77897;BME280;67092;64.282;21.056;2023-05-08T10:51:18;102225.05;;;21.38;23.38
77897;BME280;67092;64.282;21.056;2023-05-08T10:53:43;102218.20;;;21.57;23.18
77897;BME280;67092;64.282;21.056;2023-05-08T10:56:05;102216.23;;;21.53;23.04
77897;BME280;67092;64.282;21.056;2023-05-08T10:58:31;102216.74;;;21.22;23.29
77897;BME280;67092;64.282;21.056;2023-05-08T11:01:12;102215.01;;;21.43;23.09
77897;BME280;67092;64.282;21.056;2023-05-08T11:03:23;102214.06;;;21.21;23.29
77897;BME280;67092;64.282;21.056;2023-05-08T11:05:48;102213.96;;;20.88;23.59
77897;BME280;67092;64.282;21.056;2023-05-08T11:08:14;102206.54;;;21.44;23.09
77897;BME280;67092;64.282;21.056;2023-05-08T11:10:38;102208.20;;;21.17;23.09
77897;BME280;67092;64.282;21.056;2023-05-08T11:13:04;102208.56;;;21.16;23.31
77897;BME280;67092;64.282;21.056;2023-05-08T11:15:35;102206.68;;;21.45;23.05
77897;BME280;67092;64.282;21.056;2023-05-08T11:17:55;102207.15;;;21.47;22.98
77897;BME280;67092;64.282;21.056;2023-05-08T11:20:22;102209.13;;;21.14;23.26
77897;BME280;67092;64.282;21.056;2023-05-08T11:22:47;102209.95;;;21.01;23.38
77897;BME280;67092;64.282;21.056;2023-05-08T11:25:12;102207.00;;;21.39;23.04
77897;BME280;67092;64.282;21.056;2023-05-08T11:27:40;102205.40;;;21.07;23.30
77897;BME280;67092;64.282;21.056;2023-05-08T11:30:21;102201.26;;;21.06;23.11
77897;BME280;67092;64.282;21.056;2023-05-08T11:34:54;102202.36;;;21.31;23.11
77897;BME280;67092;64.282;21.056;2023-05-08T11:37:22;102203.22;;;21.08;23.28
77897;BME280;67092;64.282;21.056;2023-05-08T11:39:46;102203.16;;;20.90;23.22
77897;BME280;67092;64.282;21.056;2023-05-08T11:44:37;102195.79;;;21.56;22.85
77897;BME280;67092;64.282;21.056;2023-05-08T11:47:02;102194.99;;;21.26;23.13
77897;BME280;67092;64.282;21.056;2023-05-08T11:49:28;102191.86;;;21.22;23.17
77897;BME280;67092;64.282;21.056;2023-05-08T11:51:57;102190.33;;;21.30;23.06
77897;BME280;67092;64.282;21.056;2023-05-08T11:54:21;102187.45;;;21.08;23.25
77897;BME280;67092;64.282;21.056;2023-05-08T11:56:45;102189.16;;;20.94;23.12
77897;BME280;67092;64.282;21.056;2023-05-08T11:59:10;102188.89;;;21.23;23.11
77897;BME280;67092;64.282;21.056;2023-05-08T12:01:36;102186.77;;;21.24;23.09
77897;BME280;67092;64.282;21.056;2023-05-08T12:04:03;102184.12;;;20.90;23.15
77897;BME280;67092;64.282;21.056;2023-05-08T12:06:27;102184.31;;;21.42;22.94
77897;BME280;67092;64.282;21.056;2023-05-08T12:08:53;102187.04;;;21.18;22.90
77897;BME280;67092;64.282;21.056;2023-05-08T12:11:22;102183.78;;;21.52;22.81
77897;BME280;67092;64.282;21.056;2023-05-08T12:13:49;102177.05;;;21.48;22.86
77897;BME280;67092;64.282;21.056;2023-05-08T12:16:10;102174.45;;;21.14;23.15
77897;BME280;67092;64.282;21.056;2023-05-08T12:18:36;102173.84;;;21.03;23.20
77897;BME280;67092;64.282;21.056;2023-05-08T12:21:01;102171.56;;;21.63;22.71
77897;BME280;67092;64.282;21.056;2023-05-08T12:23:28;102174.54;;;21.58;22.71
77897;BME280;67092;64.282;21.056;2023-05-08T12:25:53;102170.45;;;21.47;22.61
77897;BME280;67092;64.282;21.056;2023-05-08T12:28:18;102169.34;;;21.17;23.07
77897;BME280;67092;64.282;21.056;2023-05-08T12:30:44;102166.89;;;20.92;23.30
77897;BME280;67092;64.282;21.056;2023-05-08T12:33:10;102171.14;;;21.19;23.07
77897;BME280;67092;64.282;21.056;2023-05-08T12:35:36;102174.95;;;20.66;23.10
77897;BME280;67092;64.282;21.056;2023-05-08T12:38:01;102174.86;;;21.23;23.04
77897;BME280;67092;64.282;21.056;2023-05-08T12:40:28;102174.32;;;21.28;22.99
77897;BME280;67092;64.282;21.056;2023-05-08T12:42:52;102172.44;;;21.33;22.77
77897;BME280;67092;64.282;21.056;2023-05-08T12:45:18;102167.92;;;21.01;23.20